sensor_id;sensor_type;location;lat;lon;timestamp;temperature;humidity
26947;DHT22;14501;52.282;10.560;2023-09-19T00:01:40;15.00;99.90
26947;DHT22;14501;52.282;10.560;2023-09-19T00:04:07;14.90;99.90
26947;DHT22;14501;52.282;10.560;2023-09-19T00:06:38;14.90;99.90
26947;DHT22;14501;52.282;10.560;2023-09-19T00:09:04;14.80;99.90
26947;DHT22;14501;52.282;10.560;2023-09-19T00:11:30;14.90;99.90
26947;DHT22;14501;52.282;10.560;2023-09-19T00:13:56;14.70;99.90
26947;DHT22;14501;52.282;10.560;2023-09-19T00:16:24;14.70;99.90
26947;DHT22;14501;52.282;10.560;2023-09-19T00:18:51;14.70;99.90
26947;DHT22;14501;52.282;10.560;2023-09-19T00:21:16;14.80;99.90
26947;DHT22;14501;52.282;10.560;2023-09-19T00:23:42;14.70;99.90
26947;DHT22;14501;52.282;10.560;2023-09-19T00:26:07;14.70;99.90
26947;DHT22;14501;52.282;10.560;2023-09-19T00:28:33;14.70;99.90
26947;DHT22;14501;52.282;10.560;2023-09-19T00:30:59;14.60;99.90
26947;DHT22;14501;52.282;10.560;2023-09-19T00:33:27;14.60;99.90
26947;DHT22;14501;52.282;10.560;2023-09-19T00:35:55;14.60;99.90
26947;DHT22;14501;52.282;10.560;2023-09-19T00:38:22;14.60;99.90
26947;DHT22;14501;52.282;10.560;2023-09-19T00:40:53;14.60;99.90
26947;DHT22;14501;52.282;10.560;2023-09-19T00:43:20;14.60;99.90
26947;DHT22;14501;52.282;10.560;2023-09-19T00:45:48;14.50;99.90
26947;DHT22;14501;52.282;10.560;2023-09-19T00:48:16;14.60;99.90
26947;DHT22;14501;52.282;10.560;2023-09-19T00:50:43;14.50;99.90
26947;DHT22;14501;52.282;10.560;2023-09-19T00:53:09;14.50;99.90
26947;DHT22;14501;52.282;10.560;2023-09-19T00:55:38;14.50;99.90
26947;DHT22;14501;52.282;10.560;2023-09-19T00:58:04;14.50;99.90
26947;DHT22;14501;52.282;10.560;2023-09-19T01:00:33;14.50;99.90
26947;DHT22;14501;52.282;10.560;2023-09-19T01:03:00;14.60;99.90
26947;DHT22;14501;52.282;10.560;2023-09-19T01:05:29;14.50;99.90
26947;DHT22;14501;52.282;10.560;2023-09-19T01:07:55;14.50;99.90
26947;DHT22;14501;52.282;10.560;2023-09-19T01:10:21;14.50;99.90
26947;DHT22;14501;52.282;10.560;2023-09-19T01:15:49;14.60;99.90
26947;DHT22;14501;52.282;10.560;2023-09-19T01:23:37;14.70;99.90
26947;DHT22;14501;52.282;10.560;2023-09-19T01:31:31;14.60;99.90
26947;DHT22;14501;52.282;10.560;2023-09-19T01:34:03;14.60;99.90
26947;DHT22;14501;52.282;10.560;2023-09-19T01:36:34;14.60;99.90
26947;DHT22;14501;52.282;10.560;2023-09-19T01:39:07;14.60;99.90
26947;DHT22;14501;52.282;10.560;2023-09-19T01:41:45;14.50;99.90
26947;DHT22;14501;52.282;10.560;2023-09-19T01:47:37;14.50;99.90
26947;DHT22;14501;52.282;10.560;2023-09-19T01:50:27;14.60;99.90
26947;DHT22;14501;52.282;10.560;2023-09-19T01:52:59;14.60;99.90
26947;DHT22;14501;52.282;10.560;2023-09-19T01:55:30;14.50;99.90
26947;DHT22;14501;52.282;10.560;2023-09-19T01:58:06;14.60;99.90
26947;DHT22;14501;52.282;10.560;2023-09-19T02:00:35;14.60;99.90
26947;DHT22;14501;52.282;10.560;2023-09-19T02:03:03;14.60;99.90
26947;DHT22;14501;52.282;10.560;2023-09-19T02:05:29;14.60;99.90
26947;DHT22;14501;52.282;10.560;2023-09-19T02:07:56;14.60;99.90
26947;DHT22;14501;52.282;10.560;2023-09-19T02:10:22;14.60;99.90
26947;DHT22;14501;52.282;10.560;2023-09-19T02:12:50;14.60;99.90
26947;DHT22;14501;52.282;10.560;2023-09-19T02:15:16;14.60;99.90
26947;DHT22;14501;52.282;10.560;2023-09-19T02:17:43;14.60;99.90
26947;DHT22;14501;52.282;10.560;2023-09-19T02:20:10;14.60;99.90
26947;DHT22;14501;52.282;10.560;2023-09-19T02:22:40;14.50;99.90
26947;DHT22;14501;52.282;10.560;2023-09-19T02:25:06;14.50;99.90
26947;DHT22;14501;52.282;10.560;2023-09-19T02:27:33;14.50;99.90
26947;DHT22;14501;52.282;10.560;2023-09-19T02:29:58;14.40;99.90
26947;DHT22;14501;52.282;10.560;2023-09-19T02:32:24;14.50;99.90
26947;DHT22;14501;52.282;10.560;2023-09-19T02:34:50;14.50;99.90
26947;DHT22;14501;52.282;10.560;2023-09-19T02:37:17;14.50;99.90
26947;DHT22;14501;52.282;10.560;2023-09-19T02:39:44;14.50;99.90
26947;DHT22;14501;52.282;10.560;2023-09-19T02:42:09;14.50;99.90
26947;DHT22;14501;52.282;10.560;2023-09-19T02:44:35;14.40;99.90
26947;DHT22;14501;52.282;10.560;2023-09-19T02:47:01;14.40;99.90
26947;DHT22;14501;52.282;10.560;2023-09-19T02:49:26;14.40;99.90
26947;DHT22;14501;52.282;10.560;2023-09-19T02:51:52;14.40;99.90
26947;DHT22;14501;52.282;10.560;2023-09-19T02:54:18;14.30;99.90
26947;DHT22;14501;52.282;10.560;2023-09-19T02:56:44;14.30;99.90
26947;DHT22;14501;52.282;10.560;2023-09-19T02:59:10;14.30;99.90
26947;DHT22;14501;52.282;10.560;2023-09-19T03:01:36;14.20;99.90
26947;DHT22;14501;52.282;10.560;2023-09-19T03:04:04;14.20;99.90
26947;DHT22;14501;52.282;10.560;2023-09-19T03:06:31;14.20;99.90
26947;DHT22;14501;52.282;10.560;2023-09-19T03:08:58;14.10;99.90
26947;DHT22;14501;52.282;10.560;2023-09-19T03:11:25;14.10;99.90
26947;DHT22;14501;52.282;10.560;2023-09-19T03:13:52;14.10;99.90
26947;DHT22;14501;52.282;10.560;2023-09-19T03:16:18;14.10;99.90
26947;DHT22;14501;52.282;10.560;2023-09-19T03:18:47;14.10;99.90
26947;DHT22;14501;52.282;10.560;2023-09-19T03:21:15;14.10;99.90
26947;DHT22;14501;52.282;10.560;2023-09-19T03:23:41;14.00;99.90
26947;DHT22;14501;52.282;10.560;2023-09-19T03:26:08;14.10;99.90
26947;DHT22;14501;52.282;10.560;2023-09-19T03:28:34;14.10;99.90
26947;DHT22;14501;52.282;10.560;2023-09-19T03:31:05;14.10;99.90
26947;DHT22;14501;52.282;10.560;2023-09-19T03:33:31;14.00;99.90
26947;DHT22;14501;52.282;10.560;2023-09-19T03:35:58;14.00;99.90
26947;DHT22;14501;52.282;10.560;2023-09-19T03:38:25;14.00;99.90
26947;DHT22;14501;52.282;10.560;2023-09-19T03:40:51;14.00;99.90
26947;DHT22;14501;52.282;10.560;2023-09-19T03:43:17;13.90;99.90
26947;DHT22;14501;52.282;10.560;2023-09-19T03:45:42;13.90;99.90
26947;DHT22;14501;52.282;10.560;2023-09-19T03:48:11;13.90;99.90
26947;DHT22;14501;52.282;10.560;2023-09-19T03:50:37;13.90;99.90
26947;DHT22;14501;52.282;10.560;2023-09-19T03:53:03;13.90;99.90
26947;DHT22;14501;52.282;10.560;2023-09-19T03:55:29;14.00;99.90
26947;DHT22;14501;52.282;10.560;2023-09-19T03:57:58;13.90;99.90
26947;DHT22;14501;52.282;10.560;2023-09-19T04:00:23;13.90;99.90
26947;DHT22;14501;52.282;10.560;2023-09-19T04:02:52;13.90;99.90
26947;DHT22;14501;52.282;10.560;2023-09-19T04:07:44;13.80;99.90
26947;DHT22;14501;52.282;10.560;2023-09-19T04:10:09;13.90;99.90
26947;DHT22;14501;52.282;10.560;2023-09-19T04:12:37;13.90;99.90
26947;DHT22;14501;52.282;10.560;2023-09-19T04:15:03;13.90;99.90
26947;DHT22;14501;52.282;10.560;2023-09-19T04:17:28;13.80;99.90
26947;DHT22;14501;52.282;10.560;2023-09-19T04:19:54;13.80;99.90
26947;DHT22;14501;52.282;10.560;2023-09-19T04:22:20;13.70;99.90
26947;DHT22;14501;52.282;10.560;2023-09-19T04:24:45;13.70;99.90
26947;DHT22;14501;52.282;10.560;2023-09-19T04:27:11;13.70;99.90
26947;DHT22;14501;52.282;10.560;2023-09-19T04:29:40;13.70;99.90
26947;DHT22;14501;52.282;10.560;2023-09-19T04:32:07;13.70;99.90
26947;DHT22;14501;52.282;10.560;2023-09-19T04:34:35;13.60;99.90
26947;DHT22;14501;52.282;10.560;2023-09-19T04:37:01;13.60;99.90
26947;DHT22;14501;52.282;10.560;2023-09-19T04:39:27;13.60;99.90
26947;DHT22;14501;52.282;10.560;2023-09-19T04:41:54;13.60;99.90
26947;DHT22;14501;52.282;10.560;2023-09-19T04:44:20;13.70;99.90
26947;DHT22;14501;52.282;10.560;2023-09-19T04:46:46;13.80;99.90
26947;DHT22;14501;52.282;10.560;2023-09-19T04:49:12;13.80;99.90
26947;DHT22;14501;52.282;10.560;2023-09-19T04:51:38;13.80;99.90
26947;DHT22;14501;52.282;10.560;2023-09-19T04:54:05;13.90;99.90
26947;DHT22;14501;52.282;10.560;2023-09-19T04:56:30;13.90;99.90
26947;DHT22;14501;52.282;10.560;2023-09-19T04:59:00;13.90;99.90
26947;DHT22;14501;52.282;10.560;2023-09-19T05:01:26;14.00;99.90
26947;DHT22;14501;52.282;10.560;2023-09-19T05:03:52;14.10;99.90
26947;DHT22;14501;52.282;10.560;2023-09-19T05:06:21;14.00;99.90
26947;DHT22;14501;52.282;10.560;2023-09-19T05:08:48;14.20;99.90
26947;DHT22;14501;52.282;10.560;2023-09-19T05:11:18;14.00;99.90
26947;DHT22;14501;52.282;10.560;2023-09-19T05:13:44;14.10;99.90
26947;DHT22;14501;52.282;10.560;2023-09-19T05:18:36;14.20;99.90
26947;DHT22;14501;52.282;10.560;2023-09-19T05:21:02;14.20;99.90
26947;DHT22;14501;52.282;10.560;2023-09-19T05:23:28;14.40;99.90
26947;DHT22;14501;52.282;10.560;2023-09-19T05:25:54;14.50;99.90
26947;DHT22;14501;52.282;10.560;2023-09-19T05:28:20;14.50;99.90
26947;DHT22;14501;52.282;10.560;2023-09-19T05:30:45;14.60;99.90
26947;DHT22;14501;52.282;10.560;2023-09-19T05:33:12;14.60;99.90
26947;DHT22;14501;52.282;10.560;2023-09-19T05:35:38;14.60;99.90
26947;DHT22;14501;52.282;10.560;2023-09-19T05:38:07;14.70;99.90
26947;DHT22;14501;52.282;10.560;2023-09-19T05:40:34;14.70;99.90
26947;DHT22;14501;52.282;10.560;2023-09-19T05:43:00;14.70;99.90
26947;DHT22;14501;52.282;10.560;2023-09-19T05:45:27;14.70;99.90
26947;DHT22;14501;52.282;10.560;2023-09-19T05:47:53;14.80;99.90
26947;DHT22;14501;52.282;10.560;2023-09-19T05:50:29;14.60;99.90
26947;DHT22;14501;52.282;10.560;2023-09-19T05:52:55;14.70;99.90
26947;DHT22;14501;52.282;10.560;2023-09-19T05:55:23;14.60;99.90
26947;DHT22;14501;52.282;10.560;2023-09-19T05:57:54;14.70;99.90
26947;DHT22;14501;52.282;10.560;2023-09-19T06:00:20;14.60;99.90
26947;DHT22;14501;52.282;10.560;2023-09-19T06:02:55;14.60;99.90
26947;DHT22;14501;52.282;10.560;2023-09-19T06:05:23;14.50;99.90
26947;DHT22;14501;52.282;10.560;2023-09-19T06:07:48;14.50;99.90
26947;DHT22;14501;52.282;10.560;2023-09-19T06:10:14;14.50;99.90
26947;DHT22;14501;52.282;10.560;2023-09-19T06:12:41;14.50;99.90
26947;DHT22;14501;52.282;10.560;2023-09-19T06:15:11;14.40;99.90
26947;DHT22;14501;52.282;10.560;2023-09-19T06:17:49;14.40;99.90
26947;DHT22;14501;52.282;10.560;2023-09-19T06:20:15;14.40;99.90
26947;DHT22;14501;52.282;10.560;2023-09-19T06:22:43;14.40;99.90
26947;DHT22;14501;52.282;10.560;2023-09-19T06:25:10;14.50;99.90
26947;DHT22;14501;52.282;10.560;2023-09-19T06:27:47;14.50;99.90
26947;DHT22;14501;52.282;10.560;2023-09-19T06:30:13;14.60;99.90
26947;DHT22;14501;52.282;10.560;2023-09-19T06:32:40;14.60;99.90
26947;DHT22;14501;52.282;10.560;2023-09-19T06:35:09;14.80;99.90
26947;DHT22;14501;52.282;10.560;2023-09-19T06:37:40;14.90;99.90
26947;DHT22;14501;52.282;10.560;2023-09-19T06:40:09;15.20;99.90
26947;DHT22;14501;52.282;10.560;2023-09-19T06:42:51;15.30;99.90
26947;DHT22;14501;52.282;10.560;2023-09-19T06:45:18;15.50;99.90
26947;DHT22;14501;52.282;10.560;2023-09-19T06:47:45;15.60;99.90
26947;DHT22;14501;52.282;10.560;2023-09-19T06:50:11;15.70;99.90
26947;DHT22;14501;52.282;10.560;2023-09-19T06:52:42;15.80;99.90
26947;DHT22;14501;52.282;10.560;2023-09-19T06:55:08;15.90;99.90
26947;DHT22;14501;52.282;10.560;2023-09-19T06:57:35;16.10;99.90
26947;DHT22;14501;52.282;10.560;2023-09-19T07:00:01;16.10;99.90
26947;DHT22;14501;52.282;10.560;2023-09-19T07:02:27;16.10;99.90
26947;DHT22;14501;52.282;10.560;2023-09-19T07:04:53;16.30;99.90
26947;DHT22;14501;52.282;10.560;2023-09-19T07:07:18;16.30;99.90
26947;DHT22;14501;52.282;10.560;2023-09-19T07:09:44;16.30;99.90
26947;DHT22;14501;52.282;10.560;2023-09-19T07:12:09;16.40;99.90
26947;DHT22;14501;52.282;10.560;2023-09-19T07:14:35;16.50;99.90
26947;DHT22;14501;52.282;10.560;2023-09-19T07:17:01;16.50;99.90
26947;DHT22;14501;52.282;10.560;2023-09-19T07:19:27;16.50;99.90
26947;DHT22;14501;52.282;10.560;2023-09-19T07:21:56;16.60;99.90
26947;DHT22;14501;52.282;10.560;2023-09-19T07:24:25;16.60;99.90
26947;DHT22;14501;52.282;10.560;2023-09-19T07:26:52;16.60;99.90
26947;DHT22;14501;52.282;10.560;2023-09-19T07:29:18;16.70;99.90
26947;DHT22;14501;52.282;10.560;2023-09-19T07:31:43;16.70;99.90
26947;DHT22;14501;52.282;10.560;2023-09-19T07:34:09;16.80;99.90
26947;DHT22;14501;52.282;10.560;2023-09-19T07:36:35;16.90;99.90
26947;DHT22;14501;52.282;10.560;2023-09-19T07:39:03;17.00;99.90
26947;DHT22;14501;52.282;10.560;2023-09-19T07:41:33;17.10;99.90
26947;DHT22;14501;52.282;10.560;2023-09-19T07:43:58;17.10;99.90
26947;DHT22;14501;52.282;10.560;2023-09-19T07:46:24;17.20;99.90
26947;DHT22;14501;52.282;10.560;2023-09-19T07:48:51;17.20;99.90
26947;DHT22;14501;52.282;10.560;2023-09-19T07:51:17;17.20;99.90
26947;DHT22;14501;52.282;10.560;2023-09-19T07:53:43;17.40;99.90
26947;DHT22;14501;52.282;10.560;2023-09-19T07:56:09;17.40;99.90
26947;DHT22;14501;52.282;10.560;2023-09-19T07:58:35;17.50;99.90
26947;DHT22;14501;52.282;10.560;2023-09-19T08:01:06;17.50;99.90
26947;DHT22;14501;52.282;10.560;2023-09-19T08:03:33;17.70;99.90
26947;DHT22;14501;52.282;10.560;2023-09-19T08:06:00;17.70;99.90
26947;DHT22;14501;52.282;10.560;2023-09-19T08:08:26;17.80;99.90
26947;DHT22;14501;52.282;10.560;2023-09-19T08:10:53;18.30;99.90
26947;DHT22;14501;52.282;10.560;2023-09-19T08:13:21;20.60;99.90
26947;DHT22;14501;52.282;10.560;2023-09-19T08:15:46;20.80;99.90
26947;DHT22;14501;52.282;10.560;2023-09-19T08:18:14;22.30;99.90
26947;DHT22;14501;52.282;10.560;2023-09-19T08:20:40;22.60;99.90
26947;DHT22;14501;52.282;10.560;2023-09-19T08:23:07;22.90;99.90
26947;DHT22;14501;52.282;10.560;2023-09-19T08:25:33;23.00;99.90
26947;DHT22;14501;52.282;10.560;2023-09-19T08:28:00;22.90;99.90
26947;DHT22;14501;52.282;10.560;2023-09-19T08:30:28;23.40;99.90
26947;DHT22;14501;52.282;10.560;2023-09-19T08:33:01;25.00;99.90
26947;DHT22;14501;52.282;10.560;2023-09-19T08:35:29;24.80;99.90
26947;DHT22;14501;52.282;10.560;2023-09-19T08:37:55;24.90;99.90
26947;DHT22;14501;52.282;10.560;2023-09-19T08:40:22;24.50;99.90
26947;DHT22;14501;52.282;10.560;2023-09-19T08:42:52;24.40;99.90
26947;DHT22;14501;52.282;10.560;2023-09-19T08:45:23;24.40;99.90
26947;DHT22;14501;52.282;10.560;2023-09-19T08:48:27;24.00;99.90
26947;DHT22;14501;52.282;10.560;2023-09-19T08:51:07;23.90;99.90
26947;DHT22;14501;52.282;10.560;2023-09-19T08:53:51;24.50;99.90
26947;DHT22;14501;52.282;10.560;2023-09-19T08:56:21;24.70;99.90
26947;DHT22;14501;52.282;10.560;2023-09-19T08:58:54;25.40;99.90
26947;DHT22;14501;52.282;10.560;2023-09-19T09:01:20;25.80;99.90
26947;DHT22;14501;52.282;10.560;2023-09-19T09:03:56;26.90;99.00
26947;DHT22;14501;52.282;10.560;2023-09-19T09:06:23;27.10;98.80
26947;DHT22;14501;52.282;10.560;2023-09-19T09:08:52;27.90;99.00
26947;DHT22;14501;52.282;10.560;2023-09-19T09:11:18;28.40;96.40
26947;DHT22;14501;52.282;10.560;2023-09-19T09:13:45;28.70;95.20
26947;DHT22;14501;52.282;10.560;2023-09-19T09:16:11;28.70;95.20
26947;DHT22;14501;52.282;10.560;2023-09-19T09:18:39;29.10;94.80
26947;DHT22;14501;52.282;10.560;2023-09-19T09:21:05;29.30;93.90
26947;DHT22;14501;52.282;10.560;2023-09-19T09:23:31;28.90;91.80
26947;DHT22;14501;52.282;10.560;2023-09-19T09:26:00;28.90;92.20
26947;DHT22;14501;52.282;10.560;2023-09-19T09:28:31;28.00;92.60
26947;DHT22;14501;52.282;10.560;2023-09-19T09:30:58;28.10;93.90
26947;DHT22;14501;52.282;10.560;2023-09-19T09:33:24;27.60;95.00
26947;DHT22;14501;52.282;10.560;2023-09-19T09:38:24;27.30;93.80
26947;DHT22;14501;52.282;10.560;2023-09-19T09:40:57;27.80;93.10
26947;DHT22;14501;52.282;10.560;2023-09-19T09:43:37;28.00;92.40
26947;DHT22;14501;52.282;10.560;2023-09-19T09:46:14;28.00;92.40
26947;DHT22;14501;52.282;10.560;2023-09-19T09:49:05;26.80;92.30
26947;DHT22;14501;52.282;10.560;2023-09-19T09:52:04;26.20;93.00
26947;DHT22;14501;52.282;10.560;2023-09-19T09:54:35;25.50;94.00
26947;DHT22;14501;52.282;10.560;2023-09-19T09:57:11;25.60;94.80
26947;DHT22;14501;52.282;10.560;2023-09-19T09:59:49;25.80;95.20
26947;DHT22;14501;52.282;10.560;2023-09-19T10:02:17;25.70;94.50
26947;DHT22;14501;52.282;10.560;2023-09-19T10:04:54;25.80;94.00
26947;DHT22;14501;52.282;10.560;2023-09-19T10:07:40;25.80;93.90
26947;DHT22;14501;52.282;10.560;2023-09-19T10:10:08;25.80;95.40
26947;DHT22;14501;52.282;10.560;2023-09-19T10:12:55;25.80;94.80
26947;DHT22;14501;52.282;10.560;2023-09-19T10:15:29;25.50;93.30
26947;DHT22;14501;52.282;10.560;2023-09-19T10:17:59;25.00;94.40
26947;DHT22;14501;52.282;10.560;2023-09-19T10:20:26;24.40;95.80
26947;DHT22;14501;52.282;10.560;2023-09-19T10:22:56;23.80;96.40
26947;DHT22;14501;52.282;10.560;2023-09-19T10:25:27;23.40;96.40
26947;DHT22;14501;52.282;10.560;2023-09-19T10:28:00;23.30;97.30
26947;DHT22;14501;52.282;10.560;2023-09-19T10:30:29;23.30;98.50
26947;DHT22;14501;52.282;10.560;2023-09-19T10:33:01;23.10;97.80
26947;DHT22;14501;52.282;10.560;2023-09-19T10:35:27;22.90;96.80
26947;DHT22;14501;52.282;10.560;2023-09-19T10:40:21;22.70;98.60
26947;DHT22;14501;52.282;10.560;2023-09-19T10:42:52;22.60;98.60
26947;DHT22;14501;52.282;10.560;2023-09-19T10:45:20;22.50;98.40
26947;DHT22;14501;52.282;10.560;2023-09-19T10:47:46;22.70;98.30
26947;DHT22;14501;52.282;10.560;2023-09-19T10:50:20;22.70;99.50
26947;DHT22;14501;52.282;10.560;2023-09-19T10:52:48;23.00;99.80
26947;DHT22;14501;52.282;10.560;2023-09-19T10:55:18;23.20;98.70
26947;DHT22;14501;52.282;10.560;2023-09-19T10:57:44;23.00;98.10
26947;DHT22;14501;52.282;10.560;2023-09-19T11:00:12;22.50;98.70
26947;DHT22;14501;52.282;10.560;2023-09-19T11:03:20;22.10;99.50
26947;DHT22;14501;52.282;10.560;2023-09-19T11:06:04;21.80;99.90
26947;DHT22;14501;52.282;10.560;2023-09-19T11:11:39;22.10;99.90
26947;DHT22;14501;52.282;10.560;2023-09-19T11:30:38;21.90;99.90
26947;DHT22;14501;52.282;10.560;2023-09-19T11:36:09;21.70;99.90
26947;DHT22;14501;52.282;10.560;2023-09-19T11:46:27;22.00;99.90
26947;DHT22;14501;52.282;10.560;2023-09-19T11:48:53;21.90;99.90
26947;DHT22;14501;52.282;10.560;2023-09-19T11:51:24;22.00;99.90
26947;DHT22;14501;52.282;10.560;2023-09-19T11:53:56;22.10;99.90
26947;DHT22;14501;52.282;10.560;2023-09-19T11:56:24;21.90;99.90
26947;DHT22;14501;52.282;10.560;2023-09-19T11:58:52;21.90;99.90
26947;DHT22;14501;52.282;10.560;2023-09-19T12:01:23;22.00;99.60
26947;DHT22;14501;52.282;10.560;2023-09-19T12:03:54;22.00;99.90
26947;DHT22;14501;52.282;10.560;2023-09-19T12:06:23;21.90;99.50
26947;DHT22;14501;52.282;10.560;2023-09-19T12:08:49;22.10;99.90
26947;DHT22;14501;52.282;10.560;2023-09-19T12:11:16;22.10;99.90
26947;DHT22;14501;52.282;10.560;2023-09-19T12:13:47;22.00;99.90
26947;DHT22;14501;52.282;10.560;2023-09-19T12:16:18;22.10;99.90
26947;DHT22;14501;52.282;10.560;2023-09-19T12:18:47;22.10;99.90
26947;DHT22;14501;52.282;10.560;2023-09-19T12:21:31;22.20;99.90
26947;DHT22;14501;52.282;10.560;2023-09-19T12:26:38;22.30;99.90
26947;DHT22;14501;52.282;10.560;2023-09-19T12:29:11;22.30;99.90
26947;DHT22;14501;52.282;10.560;2023-09-19T12:31:47;22.30;99.50
26947;DHT22;14501;52.282;10.560;2023-09-19T12:34:16;22.10;99.70
26947;DHT22;14501;52.282;10.560;2023-09-19T12:36:42;22.00;99.90
26947;DHT22;14501;52.282;10.560;2023-09-19T12:39:08;22.00;99.90
26947;DHT22;14501;52.282;10.560;2023-09-19T12:41:34;22.20;99.90
26947;DHT22;14501;52.282;10.560;2023-09-19T12:44:01;22.40;99.90
26947;DHT22;14501;52.282;10.560;2023-09-19T12:46:30;22.40;99.90
26947;DHT22;14501;52.282;10.560;2023-09-19T12:49:19;22.20;99.50
26947;DHT22;14501;52.282;10.560;2023-09-19T12:51:46;22.20;99.40
26947;DHT22;14501;52.282;10.560;2023-09-19T12:54:16;21.90;99.10
26947;DHT22;14501;52.282;10.560;2023-09-19T12:56:44;21.90;99.90
26947;DHT22;14501;52.282;10.560;2023-09-19T12:59:13;21.90;99.70
26947;DHT22;14501;52.282;10.560;2023-09-19T13:01:42;21.80;99.90
26947;DHT22;14501;52.282;10.560;2023-09-19T13:06:53;21.90;99.90
26947;DHT22;14501;52.282;10.560;2023-09-19T13:09:22;21.90;99.60
26947;DHT22;14501;52.282;10.560;2023-09-19T13:11:50;21.70;99.90
26947;DHT22;14501;52.282;10.560;2023-09-19T13:14:26;21.60;99.90
26947;DHT22;14501;52.282;10.560;2023-09-19T13:17:06;21.40;99.90
26947;DHT22;14501;52.282;10.560;2023-09-19T13:19:44;21.20;99.90
26947;DHT22;14501;52.282;10.560;2023-09-19T13:22:39;21.10;99.90
26947;DHT22;14501;52.282;10.560;2023-09-19T13:25:17;21.00;99.90
26947;DHT22;14501;52.282;10.560;2023-09-19T13:27:58;21.00;99.90
26947;DHT22;14501;52.282;10.560;2023-09-19T13:30:28;21.20;99.90
26947;DHT22;14501;52.282;10.560;2023-09-19T13:33:10;21.20;99.90
26947;DHT22;14501;52.282;10.560;2023-09-19T13:35:38;21.30;99.90
26947;DHT22;14501;52.282;10.560;2023-09-19T13:38:05;21.30;99.90
26947;DHT22;14501;52.282;10.560;2023-09-19T13:40:32;21.20;99.90
26947;DHT22;14501;52.282;10.560;2023-09-19T13:43:00;21.20;99.90
26947;DHT22;14501;52.282;10.560;2023-09-19T13:45:26;21.20;99.90
26947;DHT22;14501;52.282;10.560;2023-09-19T13:47:52;21.20;99.90
26947;DHT22;14501;52.282;10.560;2023-09-19T13:50:19;21.40;99.90
26947;DHT22;14501;52.282;10.560;2023-09-19T13:52:49;21.30;99.90
26947;DHT22;14501;52.282;10.560;2023-09-19T13:55:17;21.30;99.90
26947;DHT22;14501;52.282;10.560;2023-09-19T13:57:48;21.20;99.90
26947;DHT22;14501;52.282;10.560;2023-09-19T14:00:20;21.20;99.90
26947;DHT22;14501;52.282;10.560;2023-09-19T14:02:46;21.20;99.90
26947;DHT22;14501;52.282;10.560;2023-09-19T14:05:14;21.30;99.90
26947;DHT22;14501;52.282;10.560;2023-09-19T14:07:45;21.50;99.90
26947;DHT22;14501;52.282;10.560;2023-09-19T14:10:11;21.60;99.90
26947;DHT22;14501;52.282;10.560;2023-09-19T14:12:40;21.70;99.90
26947;DHT22;14501;52.282;10.560;2023-09-19T14:15:07;21.80;99.90
26947;DHT22;14501;52.282;10.560;2023-09-19T14:17:33;21.60;99.70
26947;DHT22;14501;52.282;10.560;2023-09-19T14:19:59;21.50;99.50
26947;DHT22;14501;52.282;10.560;2023-09-19T14:22:24;21.40;99.90
26947;DHT22;14501;52.282;10.560;2023-09-19T14:24:50;21.50;99.90
26947;DHT22;14501;52.282;10.560;2023-09-19T14:27:17;21.40;99.90
26947;DHT22;14501;52.282;10.560;2023-09-19T14:29:43;21.40;99.60
26947;DHT22;14501;52.282;10.560;2023-09-19T14:32:08;21.10;99.50
26947;DHT22;14501;52.282;10.560;2023-09-19T14:34:34;21.00;99.90
26947;DHT22;14501;52.282;10.560;2023-09-19T14:37:02;21.00;99.90
26947;DHT22;14501;52.282;10.560;2023-09-19T14:39:27;21.00;99.90
26947;DHT22;14501;52.282;10.560;2023-09-19T14:41:54;21.00;99.80
26947;DHT22;14501;52.282;10.560;2023-09-19T14:44:19;21.10;99.90
26947;DHT22;14501;52.282;10.560;2023-09-19T14:46:45;21.00;99.30
26947;DHT22;14501;52.282;10.560;2023-09-19T14:49:11;20.90;99.90
26947;DHT22;14501;52.282;10.560;2023-09-19T14:51:38;20.80;99.90
26947;DHT22;14501;52.282;10.560;2023-09-19T14:54:05;20.70;99.90
26947;DHT22;14501;52.282;10.560;2023-09-19T14:56:33;20.60;99.90
26947;DHT22;14501;52.282;10.560;2023-09-19T14:58:58;20.50;99.90
26947;DHT22;14501;52.282;10.560;2023-09-19T15:01:24;20.40;99.90
26947;DHT22;14501;52.282;10.560;2023-09-19T15:03:49;20.20;99.90
26947;DHT22;14501;52.282;10.560;2023-09-19T15:06:15;20.20;99.90
26947;DHT22;14501;52.282;10.560;2023-09-19T15:08:44;20.10;99.90
26947;DHT22;14501;52.282;10.560;2023-09-19T15:11:16;20.10;99.90
26947;DHT22;14501;52.282;10.560;2023-09-19T15:13:44;20.10;99.90
26947;DHT22;14501;52.282;10.560;2023-09-19T15:16:10;20.00;99.90
26947;DHT22;14501;52.282;10.560;2023-09-19T15:18:40;20.10;99.90
26947;DHT22;14501;52.282;10.560;2023-09-19T15:21:08;20.10;99.90
26947;DHT22;14501;52.282;10.560;2023-09-19T15:23:35;20.10;99.90
26947;DHT22;14501;52.282;10.560;2023-09-19T15:26:02;20.20;99.90
26947;DHT22;14501;52.282;10.560;2023-09-19T15:28:28;20.10;99.90
26947;DHT22;14501;52.282;10.560;2023-09-19T15:31:02;20.00;99.90
26947;DHT22;14501;52.282;10.560;2023-09-19T15:33:32;19.90;99.90
26947;DHT22;14501;52.282;10.560;2023-09-19T15:38:30;19.80;99.90
26947;DHT22;14501;52.282;10.560;2023-09-19T15:40:57;19.80;99.90
26947;DHT22;14501;52.282;10.560;2023-09-19T15:43:23;19.80;99.90
26947;DHT22;14501;52.282;10.560;2023-09-19T15:45:49;19.90;99.90
26947;DHT22;14501;52.282;10.560;2023-09-19T15:48:15;19.90;99.90
26947;DHT22;14501;52.282;10.560;2023-09-19T15:50:42;20.00;99.90
26947;DHT22;14501;52.282;10.560;2023-09-19T15:53:09;20.00;99.90
26947;DHT22;14501;52.282;10.560;2023-09-19T15:55:38;19.90;99.90
26947;DHT22;14501;52.282;10.560;2023-09-19T15:58:05;19.90;99.90
26947;DHT22;14501;52.282;10.560;2023-09-19T16:00:32;19.80;99.90
26947;DHT22;14501;52.282;10.560;2023-09-19T16:03:00;19.80;99.90
26947;DHT22;14501;52.282;10.560;2023-09-19T16:05:26;19.70;99.90
26947;DHT22;14501;52.282;10.560;2023-09-19T16:07:52;19.70;99.90
26947;DHT22;14501;52.282;10.560;2023-09-19T16:10:18;19.70;99.90
26947;DHT22;14501;52.282;10.560;2023-09-19T16:12:43;19.70;99.90
26947;DHT22;14501;52.282;10.560;2023-09-19T16:15:09;19.50;99.90
26947;DHT22;14501;52.282;10.560;2023-09-19T16:17:40;19.50;99.90
26947;DHT22;14501;52.282;10.560;2023-09-19T16:20:06;19.40;99.90
26947;DHT22;14501;52.282;10.560;2023-09-19T16:22:36;19.30;99.90
26947;DHT22;14501;52.282;10.560;2023-09-19T16:25:02;19.20;99.90
26947;DHT22;14501;52.282;10.560;2023-09-19T16:27:28;19.20;99.90
26947;DHT22;14501;52.282;10.560;2023-09-19T16:29:53;19.10;99.90